Terminal Aerodrome Forecast
Issued by NWS Des Moines, IA

Home | Current Version | Previous Version | Text Only | Print | Product List | Glossary On
Versions: 1 2 3 4 5 6 7 8 9 10 11 12 13 14 15 16 17 18 19 20 21 22 23 24 25 26 27 28 29 30 31 32 33 34 35
000
FTUS43 KDMX 022346
TAFALO
TAF
KALO 022346Z 0300/0324 18006KT P6SM OVC090
     FM030800 16014KT 2SM -SNPL OVC015
     FM031100 15016G22KT 3SM -SN OVC010
     FM031600 23014KT 5SM -FZDZ OVC010
     FM032000 30020G30KT 4SM BLSN OVC006
     FM032300 30016G25KT P6SM OVC018=

USA.gov is the U.S. government's official web portal to all federal, state and local government web resources and services.